Time;durP1;ratioP1;P1;durP2;ratioP2;P2;SDS_P1;SDS_P2;PMS_P1;PMS_P2;Temp;Humidity;BMP_temperature;BMP_pressure;BME280_temperature;BME280_humidity;BME280_pressure;Samples;Min_cycle;Max_cycle;Signal;HPM_P1;HPM_P2
2022/11/16 00:01:54;;;;;;;;;;;;;;;10.35;97.14844;99875.87;;;;-76
2022/11/16 00:06:51;;;;;;;;;;;;;;;10.37;97.61426;99875.02;;;;-76
2022/11/16 00:07:05;;;;;;;9.4;6.2;;;;;;;;;;;;;-76
2022/11/16 00:11:52;;;;;;;;;;;;;;;10.38;97.84766;99876.49;;;;-76
2022/11/16 00:16:54;;;;;;;;;;;;;;;10.38;97.80371;99878.89;;;;-76
2022/11/16 00:21:51;;;;;;;;;;;;;;;10.38;98.03418;99876.61;;;;-77
2022/11/16 00:26:51;;;;;;;;;;;;;;;10.39;98.06934;99868.42;;;;-78
2022/11/16 00:31:52;;;;;;;;;;;;;;;10.4;98.13965;99873.19;;;;-77
2022/11/16 00:36:51;;;;;;;;;;;;;;;10.39;98.24805;99864.82;;;;-77
2022/11/16 00:37:03;;;;;;;9;5.4;;;;;;;;;;;;;-77
2022/11/16 00:41:51;;;;;;;;;;;;;;;10.41;98.23828;99866.98;;;;-77
2022/11/16 00:46:53;;;;;;;;;;;;;;;10.42;98.28516;99860.5;;;;-76
2022/11/16 00:51:51;;;;;;;;;;;;;;;10.42;97.94531;99859.84;;;;-77
2022/11/16 00:56:51;;;;;;;;;;;;;;;10.42;98.44043;99855.88;;;;-77
2022/11/16 01:01:54;;;;;;;;;;;;;;;10.44;98.45605;99855.91;;;;-78
2022/11/16 01:06:51;;;;;;;;;;;;;;;10.44;98.80762;99848.59;;;;-78
2022/11/16 01:07:00;;;;;;;8.7;5.2;;;;;;;;;;;;;-78
2022/11/16 01:16:51;;;;;;;;;;;;;;;10.46;98.73242;99842.17;;;;-78
2022/11/16 01:21:51;;;;;;;;;;;;;;;10.47;98.81348;99836.01;;;;-78
2022/11/16 01:26:55;;;;;;;;;;;;;;;10.45;99.22754;99836.73;;;;-76
2022/11/16 01:31:54;;;;;;;;;;;;;;;10.46;99.31543;99839.36;;;;-75
2022/11/16 01:36:51;;;;;;;;;;;;;;;10.48;99.4209;99832.72;;;;-76
2022/11/16 01:37:01;;;;;;;8.5;5.4;;;;;;;;;;;;;-76
2022/11/16 01:41:51;;;;;;;;;;;;;;;10.5;99.53711;99832.44;;;;-77
2022/11/16 01:46:51;;;;;;;;;;;;;;;10.52;99.32129;99835.28;;;;-76
2022/11/16 01:51:54;;;;;;;;;;;;;;;10.53;99.18945;99832.66;;;;-77
2022/11/16 01:56:53;;;;;;;;;;;;;;;10.54;99.24805;99832.21;;;;-76
2022/11/16 02:01:54;;;;;;;;;;;;;;;10.55;99.39355;99834.91;;;;-76
2022/11/16 02:06:58;;;;;;;;;;;;;;;10.55;99.13867;99827.36;;;;-76
2022/11/16 02:07:12;;;;;;;9.8;5.7;;;;;;;;;;;;;-76
2022/11/16 02:11:59;;;;;;;;;;;;;;;10.54;98.99512;99815.45;;;;-76
2022/11/16 02:16:56;;;;;;;;;;;;;;;10.54;99.38086;99814.3;;;;-77
2022/11/16 02:21:54;;;;;;;;;;;;;;;10.56;99.25098;99816.81;;;;-76
2022/11/16 02:27:02;;;;;;;;;;;;;;;10.55;99.33887;99829.16;;;;-76
2022/11/16 02:31:53;;;;;;;;;;;;;;;10.6;99.84375;99825.83;;;;-76
2022/11/16 02:36:52;;;;;;;;;;;;;;;10.6;99.7334;99816.03;;;;-76
2022/11/16 02:37:02;;;;;;;8.8;5.8;;;;;;;;;;;;;-76
2022/11/16 02:41:53;;;;;;;;;;;;;;;10.58;99.71875;99815.92;;;;-75
2022/11/16 02:46:57;;;;;;;;;;;;;;;10.54;99.52148;99817.17;;;;-75
2022/11/16 02:51:52;;;;;;;;;;;;;;;10.48;99.2998;99818.57;;;;-76
2022/11/16 02:56:58;;;;;;;;;;;;;;;10.44;99.19238;99827.7;;;;-76
2022/11/16 03:01:55;;;;;;;;;;;;;;;10.38;98.75;99832.3;;;;-76
2022/11/16 03:06:53;;;;;;;;;;;;;;;10.34;98.66406;99834.44;;;;-76
2022/11/16 03:07:11;;;;;;;6.4;3.7;;;;;;;;;;;;;-76
2022/11/16 03:12:02;;;;;;;;;;;;;;;10.3;98.47754;99831.76;;;;-77
2022/11/16 03:16:54;;;;;;;;;;;;;;;10.26;98.19531;99834.28;;;;-77
2022/11/16 03:21:52;;;;;;;;;;;;;;;10.22;98.01074;99826.67;;;;-76
2022/11/16 03:26:53;;;;;;;;;;;;;;;10.19;97.79199;99818.02;;;;-76
2022/11/16 03:31:53;;;;;;;;;;;;;;;10.15;97.57715;99817.47;;;;-75
2022/11/16 03:36:53;;;;;;;;;;;;;;;10.12;97.26074;99826.91;;;;-76
2022/11/16 03:37:04;;;;;;;4.6;2.9;;;;;;;;;;;;;-76
2022/11/16 03:41:52;;;;;;;;;;;;;;;10.08;97.09863;99817.66;;;;-76
2022/11/16 03:46:51;;;;;;;;;;;;;;;10.06;97.01758;99821.58;;;;-76
2022/11/16 03:51:52;;;;;;;;;;;;;;;10.03;96.95703;99826.78;;;;-76
2022/11/16 03:56:51;;;;;;;;;;;;;;;10.01;96.77441;99829.45;;;;-77
2022/11/16 04:01:51;;;;;;;;;;;;;;;10.01;97.6875;99826.97;;;;-75
2022/11/16 04:51:51;;;;;;;;;;;;;;;9.85;97.40039;99856.27;;;;-76
2022/11/16 04:56:51;;;;;;;;;;;;;;;9.83;97.72559;99860.58;;;;-77
2022/11/16 05:06:51;;;;;;;;;;;;;;;9.78;97.46289;99861.69;;;;-76
2022/11/16 05:07:09;;;;;;;8.2;4.8;;;;;;;;;;;;;-76
2022/11/16 05:11:51;;;;;;;;;;;;;;;9.78;97.50488;99852.77;;;;-77
2022/11/16 05:16:51;;;;;;;;;;;;;;;9.75;97.20215;99856.02;;;;-77
2022/11/16 05:21:51;;;;;;;;;;;;;;;9.75;97.34473;99846.86;;;;-76
2022/11/16 05:26:51;;;;;;;;;;;;;;;9.71;97.19141;99853.95;;;;-77
2022/11/16 05:31:51;;;;;;;;;;;;;;;9.7;97.2998;99852.88;;;;-76
2022/11/16 05:36:51;;;;;;;;;;;;;;;9.67;97.16211;99855.74;;;;-77
2022/11/16 05:37:07;;;;;;;9.4;5.2;;;;;;;;;;;;;-76
2022/11/16 05:41:51;;;;;;;;;;;;;;;9.64;96.84766;99864.86;;;;-76
2022/11/16 05:46:51;;;;;;;;;;;;;;;9.63;96.95605;99871.4;;;;-76
2022/11/16 05:51:53;;;;;;;;;;;;;;;9.62;97.32715;99874.11;;;;-75
2022/11/16 05:56:51;;;;;;;;;;;;;;;9.6;97.16797;99879.17;;;;-75
2022/11/16 06:01:51;;;;;;;;;;;;;;;9.58;96.84473;99875.24;;;;-76
2022/11/16 06:06:51;;;;;;;;;;;;;;;9.56;96.45703;99870.19;;;;-76
2022/11/16 06:07:08;;;;;;;10.6;5.2;;;;;;;;;;;;;-75
2022/11/16 06:11:51;;;;;;;;;;;;;;;9.55;96.6084;99879.39;;;;-76
2022/11/16 06:16:51;;;;;;;;;;;;;;;9.52;96.83301;99873.95;;;;-77
2022/11/16 06:21:51;;;;;;;;;;;;;;;9.48;96.20996;99881.53;;;;-77
2022/11/16 06:26:51;;;;;;;;;;;;;;;9.45;96.31152;99881.95;;;;-77
2022/11/16 06:31:51;;;;;;;;;;;;;;;9.42;96.50098;99886.72;;;;-76
2022/11/16 06:36:51;;;;;;;;;;;;;;;9.38;96.33984;99890.12;;;;-76
2022/11/16 06:37:09;;;;;;;10.3;4.7;;;;;;;;;;;;;-75
2022/11/16 06:41:51;;;;;;;;;;;;;;;9.35;96.55273;99889.45;;;;-76
2022/11/16 06:46:54;;;;;;;;;;;;;;;9.33;96.57129;99889.14;;;;-76
2022/11/16 06:51:51;;;;;;;;;;;;;;;9.3;96.70605;99890.65;;;;-76
2022/11/16 06:56:51;;;;;;;;;;;;;;;9.29;97.21973;99888.81;;;;-76
2022/11/16 07:01:51;;;;;;;;;;;;;;;9.26;96.9502;99894.17;;;;-76
2022/11/16 07:06:51;;;;;;;;;;;;;;;9.21;96.81934;99892.86;;;;-75
2022/11/16 07:07:09;;;;;;;10.1;5.1;;;;;;;;;;;;;-77
2022/11/16 07:11:51;;;;;;;;;;;;;;;9.17;96.69922;99898.06;;;;-75
2022/11/16 07:16:51;;;;;;;;;;;;;;;9.13;97.0752;99899.54;;;;-76
2022/11/16 07:21:51;;;;;;;;;;;;;;;9.09;97.01074;99911.63;;;;-77
2022/11/16 07:26:51;;;;;;;;;;;;;;;9.05;96.88184;99919.59;;;;-76
2022/11/16 07:31:51;;;;;;;;;;;;;;;9.02;97.30176;99927.54;;;;-76
2022/11/16 07:36:51;;;;;;;;;;;;;;;8.97;97.08301;99927.41;;;;-76
2022/11/16 07:37:10;;;;;;;10.2;5;;;;;;;;;;;;;-76
2022/11/16 07:41:52;;;;;;;;;;;;;;;8.93;97.25;99941.75;;;;-77
2022/11/16 07:46:51;;;;;;;;;;;;;;;8.9;97.36328;99952.66;;;;-78
2022/11/16 07:51:51;;;;;;;;;;;;;;;8.86;97.35449;99965.83;;;;-76
2022/11/16 07:56:51;;;;;;;;;;;;;;;8.83;97.49316;99968.04;;;;-75
2022/11/16 08:01:54;;;;;;;;;;;;;;;8.81;97.10156;99970.2;;;;-75
2022/11/16 08:06:51;;;;;;;;;;;;;;;8.82;97.58789;99972.13;;;;-76
2022/11/16 08:07:11;;;;;;;8.5;3.1;;;;;;;;;;;;;-75
2022/11/16 08:11:51;;;;;;;;;;;;;;;8.82;97.49805;99976.05;;;;-76
2022/11/16 08:16:51;;;;;;;;;;;;;;;8.81;97.4541;99980.59;;;;-75
2022/11/16 08:21:51;;;;;;;;;;;;;;;8.77;97.2793;99985.48;;;;-75
2022/11/16 08:26:53;;;;;;;;;;;;;;;8.77;97.45703;99980.8;;;;-76
2022/11/16 08:31:51;;;;;;;;;;;;;;;8.75;97.49512;99991.28;;;;-76
2022/11/16 08:36:51;;;;;;;;;;;;;;;8.75;97.4834;99988.48;;;;-78
2022/11/16 08:37:11;;;;;;;5.4;2.3;;;;;;;;;;;;;-76
2022/11/16 08:41:51;;;;;;;;;;;;;;;8.74;97.55859;99991.58;;;;-76
2022/11/16 08:46:51;;;;;;;;;;;;;;;8.75;96.87891;99996.62;;;;-76
2022/11/16 08:51:51;;;;;;;;;;;;;;;8.75;96.72559;99996.95;;;;-76
2022/11/16 08:56:51;;;;;;;;;;;;;;;8.79;97.00977;100006;;;;-75
2022/11/16 09:01:51;;;;;;;;;;;;;;;8.88;97.94238;100006.1;;;;-76
2022/11/16 09:06:51;;;;;;;;;;;;;;;8.85;97.04785;100001.3;;;;-76
2022/11/16 09:07:12;;;;;;;7;2.3;;;;;;;;;;;;;-75
2022/11/16 09:11:52;;;;;;;;;;;;;;;8.92;97.6084;100000.5;;;;-75
2022/11/16 09:16:51;;;;;;;;;;;;;;;8.99;97.43848;99998.67;;;;-75
2022/11/16 09:21:51;;;;;;;;;;;;;;;9.06;97.86035;99987.58;;;;-76
2022/11/16 09:26:51;;;;;;;;;;;;;;;9.09;97.40723;99990.75;;;;-76
2022/11/16 09:31:51;;;;;;;;;;;;;;;9.15;97.67188;99986.5;;;;-76
2022/11/16 09:36:51;;;;;;;;;;;;;;;9.22;97.89648;99995.55;;;;-76
2022/11/16 09:37:14;;;;;;;11.2;3.1;;;;;;;;;;;;;-76
2022/11/16 09:41:58;;;;;;;;;;;;;;;9.26;97.59766;99998.68;;;;-76
2022/11/16 09:46:52;;;;;;;;;;;;;;;9.33;97.54785;100008.6;;;;-76
2022/11/16 09:51:52;;;;;;;;;;;;;;;9.4;97.32129;100013.4;;;;-75
2022/11/16 09:56:53;;;;;;;;;;;;;;;9.44;96.8916;100020.6;;;;-76
2022/11/16 10:01:53;;;;;;;;;;;;;;;9.52;96.55859;100023.9;;;;-76
2022/11/16 10:06:54;;;;;;;;;;;;;;;9.59;96.74805;100026.3;;;;-76
2022/11/16 10:07:17;;;;;;;10.9;3.3;;;;;;;;;;;;;-76
2022/11/16 10:12:07;;;;;;;;;;;;;;;9.67;97.05176;100023.9;;;;-76
2022/11/16 10:16:56;;;;;;;;;;;;;;;9.72;96.05273;100028;;;;-74
2022/11/16 10:21:54;;;;;;;;;;;;;;;9.79;96.48438;100012;;;;-75
2022/11/16 10:26:54;;;;;;;;;;;;;;;9.85;95.78418;100010.6;;;;-75
2022/11/16 10:31:56;;;;;;;;;;;;;;;9.93;95.30762;100010.3;;;;-75
2022/11/16 10:36:51;;;;;;;;;;;;;;;10.01;95.22559;100010.4;;;;-76
2022/11/16 10:37:16;;;;;;;11.1;3.7;;;;;;;;;;;;;-76
2022/11/16 10:41:52;;;;;;;;;;;;;;;10.07;94.99609;100007.5;;;;-74
2022/11/16 10:46:58;;;;;;;;;;;;;;;10.1;94.68262;100013.9;;;;-76
2022/11/16 10:51:51;;;;;;;;;;;;;;;10.13;94.81152;100014.2;;;;-75
2022/11/16 10:56:54;;;;;;;;;;;;;;;10.17;94.16992;100011.9;;;;-76
2022/11/16 11:01:52;;;;;;;;;;;;;;;10.19;93.73145;100014.9;;;;-76
2022/11/16 11:06:51;;;;;;;;;;;;;;;10.25;93.63672;100015.7;;;;-76
2022/11/16 11:07:27;;;;;;;11.8;3.9;;;;;;;;;;;;;-76
2022/11/16 11:16:55;;;;;;;;;;;;;;;10.36;93.15332;100009.2;;;;-75
2022/11/16 11:21:52;;;;;;;;;;;;;;;10.4;92.875;100004.3;;;;-75
2022/11/16 11:26:54;;;;;;;;;;;;;;;10.46;92.46973;99999.2;;;;-75
2022/11/16 11:31:52;;;;;;;;;;;;;;;10.54;91.50391;99994.97;;;;-76
2022/11/16 11:36:53;;;;;;;;;;;;;;;10.6;91.59473;99995;;;;-76
2022/11/16 11:37:19;;;;;;;6.8;2.8;;;;;;;;;;;;;-76
2022/11/16 11:42:04;;;;;;;;;;;;;;;10.64;91.04102;99992.7;;;;-76
2022/11/16 11:51:52;;;;;;;;;;;;;;;10.69;91.41309;99984.82;;;;-75
2022/11/16 11:56:51;;;;;;;;;;;;;;;10.72;91.14453;99983.82;;;;-75
2022/11/16 12:01:57;;;;;;;;;;;;;;;10.74;91.02734;99990.1;;;;-74
2022/11/16 12:06:59;;;;;;;;;;;;;;;10.78;90.65039;99989.53;;;;-74
2022/11/16 12:07:22;;;;;;;7.4;2.4;;;;;;;;;;;;;-74
2022/11/16 12:12:02;;;;;;;;;;;;;;;10.74;90.21191;99989.2;;;;-75
2022/11/16 12:16:54;;;;;;;;;;;;;;;10.8;89.97168;99984.87;;;;-76
2022/11/16 12:21:57;;;;;;;;;;;;;;;10.88;89.68848;99985.69;;;;-74
2022/11/16 12:26:55;;;;;;;;;;;;;;;10.9;89.58398;99980.78;;;;-75
2022/11/16 12:31:59;;;;;;;;;;;;;;;10.81;89.83887;99988.63;;;;-75
2022/11/16 12:36:55;;;;;;;;;;;;;;;10.76;90.03809;99987.27;;;;-76
2022/11/16 12:37:23;;;;;;;6.4;2.1;;;;;;;;;;;;;-76
2022/11/16 12:42:04;;;;;;;;;;;;;;;10.76;90.20508;99984.72;;;;-76
2022/11/16 12:46:57;;;;;;;;;;;;;;;10.81;90.09277;99981.27;;;;-75
2022/11/16 12:52:00;;;;;;;;;;;;;;;10.8;89.99219;99980.19;;;;-76
2022/11/16 12:56:55;;;;;;;;;;;;;;;10.88;89.21387;99971.16;;;;-75
2022/11/16 13:01:55;;;;;;;;;;;;;;;11.03;88.85645;99961.22;;;;-75
2022/11/16 13:06:53;;;;;;;;;;;;;;;11.08;88.25977;99953.94;;;;-76
2022/11/16 13:07:22;;;;;;;7.8;1.5;;;;;;;;;;;;;-76
2022/11/16 13:11:53;;;;;;;;;;;;;;;11.13;88.16992;99946.44;;;;-75
2022/11/16 13:16:52;;;;;;;;;;;;;;;11.12;87.87109;99942.48;;;;-75
2022/11/16 13:21:56;;;;;;;;;;;;;;;11.14;87.74219;99932.78;;;;-75
2022/11/16 13:26:56;;;;;;;;;;;;;;;11.1;87.72168;99936.05;;;;-75
2022/11/16 13:31:55;;;;;;;;;;;;;;;11;87.8457;99943.73;;;;-76
2022/11/16 13:36:54;;;;;;;;;;;;;;;10.87;88.12988;99947.3;;;;-75
2022/11/16 13:37:33;;;;;;;5.5;1.8;;;;;;;;;;;;;-75
2022/11/16 13:41:52;;;;;;;;;;;;;;;10.76;88.33789;99944.52;;;;-75
2022/11/16 13:46:52;;;;;;;;;;;;;;;10.74;88.13672;99936.71;;;;-75
2022/11/16 13:51:57;;;;;;;;;;;;;;;10.7;88.40527;99933.1;;;;-75
2022/11/16 13:56:54;;;;;;;;;;;;;;;10.74;88.7207;99927.53;;;;-74
2022/11/16 14:02:01;;;;;;;;;;;;;;;10.8;87.94922;99913.82;;;;-75
2022/11/16 14:07:03;;;;;;;;;;;;;;;10.81;87.7959;99914.98;;;;-75
2022/11/16 14:07:41;;;;;;;6.6;1.7;;;;;;;;;;;;;-75
2022/11/16 14:11:51;;;;;;;;;;;;;;;10.77;87.52344;99922.71;;;;-75
2022/11/16 14:16:57;;;;;;;;;;;;;;;10.75;87.70801;99918.34;;;;-76
2022/11/16 14:21:53;;;;;;;;;;;;;;;10.64;87.85156;99917.2;;;;-75
2022/11/16 14:26:56;;;;;;;;;;;;;;;10.59;88.30469;99919.09;;;;-76
2022/11/16 14:31:55;;;;;;;;;;;;;;;10.51;88.17773;99905.14;;;;-76
2022/11/16 14:36:52;;;;;;;;;;;;;;;10.45;87.96777;99898.28;;;;-76
2022/11/16 14:37:35;;;;;;;6.1;1.8;;;;;;;;;;;;;-76
2022/11/16 14:41:51;;;;;;;;;;;;;;;10.43;88.18555;99901.96;;;;-75
2022/11/16 14:46:51;;;;;;;;;;;;;;;10.39;88.2002;99892.7;;;;-76
2022/11/16 14:51:52;;;;;;;;;;;;;;;10.37;88.91113;99901.02;;;;-75
2022/11/16 14:57:08;;;;;;;;;;;;;;;10.34;89.16895;99900.1;;;;-76
2022/11/16 15:01:54;;;;;;;;;;;;;;;10.29;89.00293;99893.86;;;;-76
2022/11/16 15:06:52;;;;;;;;;;;;;;;10.21;89.28809;99876.16;;;;-75
2022/11/16 15:07:25;;;;;;;6.1;1.7;;;;;;;;;;;;;-75
2022/11/16 15:16:55;;;;;;;;;;;;;;;10.04;89.35156;99863.97;;;;-75
2022/11/16 15:22:01;;;;;;;;;;;;;;;9.97;90.04199;99859.7;;;;-74
2022/11/16 15:26:51;;;;;;;;;;;;;;;9.88;89.86914;99856.14;;;;-73
2022/11/16 15:31:54;;;;;;;;;;;;;;;9.79;90.18066;99845.23;;;;-75
2022/11/16 15:36:51;;;;;;;;;;;;;;;9.7;90.21777;99840.19;;;;-75
2022/11/16 15:37:33;;;;;;;5.7;1.7;;;;;;;;;;;;;-75
2022/11/16 15:41:54;;;;;;;;;;;;;;;9.61;90.52832;99841.86;;;;-75
2022/11/16 15:46:53;;;;;;;;;;;;;;;9.52;90.20215;99831.88;;;;-75
2022/11/16 15:51:51;;;;;;;;;;;;;;;9.43;90.37207;99805.77;;;;-75
2022/11/16 15:56:52;;;;;;;;;;;;;;;9.35;90.36621;99812.86;;;;-74
2022/11/16 16:01:51;;;;;;;;;;;;;;;9.25;90.35645;99812;;;;-74
2022/11/16 16:06:52;;;;;;;;;;;;;;;9.19;90.55176;99804.09;;;;-75
2022/11/16 16:07:43;;;;;;;7.4;1.7;;;;;;;;;;;;;-75
2022/11/16 16:11:54;;;;;;;;;;;;;;;9.12;90.4707;99799.05;;;;-75
2022/11/16 16:16:52;;;;;;;;;;;;;;;9.07;90.75879;99788.48;;;;-77
2022/11/16 16:21:51;;;;;;;;;;;;;;;9;90.82227;99782.06;;;;-73
2022/11/16 16:26:51;;;;;;;;;;;;;;;8.96;90.96582;99798.59;;;;-74
2022/11/16 16:31:51;;;;;;;;;;;;;;;8.88;90.91797;99797.66;;;;-74
2022/11/16 16:36:51;;;;;;;;;;;;;;;8.83;91.00586;99787.14;;;;-75
2022/11/16 16:37:32;;;;;;;5.8;1.4;;;;;;;;;;;;;-75
2022/11/16 16:41:58;;;;;;;;;;;;;;;8.77;91.13672;99781.2;;;;-76
2022/11/16 16:46:51;;;;;;;;;;;;;;;8.73;91.31445;99780.94;;;;-75
2022/11/16 16:51:51;;;;;;;;;;;;;;;8.71;91.3418;99785.2;;;;-76
2022/11/16 16:56:51;;;;;;;;;;;;;;;8.64;91.36133;99779.84;;;;-75
2022/11/16 17:01:51;;;;;;;;;;;;;;;8.61;91.56445;99778.95;;;;-73
2022/11/16 17:06:52;;;;;;;;;;;;;;;8.57;91.58789;99777.89;;;;-73
2022/11/16 17:07:29;;;;;;;5.6;1.6;;;;;;;;;;;;;-73
2022/11/16 17:11:51;;;;;;;;;;;;;;;8.53;91.66699;99766.41;;;;-74
2022/11/16 17:16:51;;;;;;;;;;;;;;;8.52;91.64355;99774.14;;;;-73
2022/11/16 17:21:51;;;;;;;;;;;;;;;8.48;91.81152;99765.39;;;;-73
2022/11/16 17:26:51;;;;;;;;;;;;;;;8.46;91.94824;99763.13;;;;-74
2022/11/16 17:31:52;;;;;;;;;;;;;;;8.45;92.08887;99764.09;;;;-75
2022/11/16 17:36:51;;;;;;;;;;;;;;;8.44;92.10938;99764.63;;;;-74
2022/11/16 17:37:29;;;;;;;6.6;1.8;;;;;;;;;;;;;-74
2022/11/16 17:41:51;;;;;;;;;;;;;;;8.41;92.125;99768.56;;;;-74
2022/11/16 17:46:51;;;;;;;;;;;;;;;8.4;92.17871;99758.93;;;;-76
2022/11/16 17:51:53;;;;;;;;;;;;;;;8.39;92.4043;99761.5;;;;-75
2022/11/16 17:56:51;;;;;;;;;;;;;;;8.38;92.3916;99752.34;;;;-75
2022/11/16 18:01:51;;;;;;;;;;;;;;;8.35;92.4502;99743.88;;;;-74
2022/11/16 18:06:51;;;;;;;;;;;;;;;8.33;92.20703;99739.57;;;;-75
2022/11/16 18:07:30;;;;;;;6.9;2.1;;;;;;;;;;;;;-75
2022/11/16 18:11:51;;;;;;;;;;;;;;;8.31;92.24707;99732.45;;;;-74
2022/11/16 18:16:51;;;;;;;;;;;;;;;8.28;92.23926;99728.42;;;;-74
2022/11/16 18:21:51;;;;;;;;;;;;;;;8.24;92.31934;99724.61;;;;-74
2022/11/16 18:26:51;;;;;;;;;;;;;;;8.22;92.37891;99721.27;;;;-74
2022/11/16 18:31:51;;;;;;;;;;;;;;;8.21;92.42285;99725.38;;;;-74
2022/11/16 18:36:51;;;;;;;;;;;;;;;8.21;92.48828;99730.44;;;;-74
2022/11/16 18:37:30;;;;;;;7.1;2;;;;;;;;;;;;;-74
2022/11/16 18:41:52;;;;;;;;;;;;;;;8.2;92.46484;99727.88;;;;-74
2022/11/16 18:46:51;;;;;;;;;;;;;;;8.23;92.45996;99715.3;;;;-75
2022/11/16 18:51:51;;;;;;;;;;;;;;;8.21;92.41211;99703.67;;;;-75
2022/11/16 18:56:51;;;;;;;;;;;;;;;8.2;92.36426;99684.95;;;;-75
2022/11/16 19:01:51;;;;;;;;;;;;;;;8.19;92.50488;99684.42;;;;-75
2022/11/16 19:06:51;;;;;;;;;;;;;;;8.19;92.59277;99674.4;;;;-75
2022/11/16 19:07:31;;;;;;;5.5;1.8;;;;;;;;;;;;;-75
2022/11/16 19:11:51;;;;;;;;;;;;;;;8.18;92.50488;99667.44;;;;-75
2022/11/16 19:16:51;;;;;;;;;;;;;;;8.18;92.59082;99660.1;;;;-74
2022/11/16 19:21:51;;;;;;;;;;;;;;;8.19;92.38574;99646.25;;;;-74
2022/11/16 19:26:50;;;;;;;;;;;;;;;8.23;92.4375;99632.51;;;;-74
2022/11/16 19:31:51;;;;;;;;;;;;;;;8.25;92.5166;99615.76;;;;-74
2022/11/16 19:36:51;;;;;;;;;;;;;;;8.26;92.44336;99601.77;;;;-74
2022/11/16 19:37:31;;;;;;;4.5;1.7;;;;;;;;;;;;;-74
2022/11/16 19:41:50;;;;;;;;;;;;;;;8.29;92.75684;99599.48;;;;-75
2022/11/16 19:46:51;;;;;;;;;;;;;;;8.31;92.84766;99587.76;;;;-74
2022/11/16 19:51:51;;;;;;;;;;;;;;;8.3;92.73828;99576.31;;;;-74
2022/11/16 19:56:51;;;;;;;;;;;;;;;8.32;92.77539;99562.22;;;;-74
2022/11/16 20:01:51;;;;;;;;;;;;;;;8.33;92.89746;99552.67;;;;-75
2022/11/16 20:06:51;;;;;;;;;;;;;;;8.39;93.18359;99541.41;;;;-75
2022/11/16 20:07:36;;;;;;;5;1.6;;;;;;;;;;;;;-75
2022/11/16 20:11:51;;;;;;;;;;;;;;;8.49;92.98535;99531.27;;;;-73
2022/11/16 20:16:52;;;;;;;;;;;;;;;8.53;92.88574;99523.5;;;;-74
2022/11/16 20:21:52;;;;;;;;;;;;;;;8.52;93.10059;99512.75;;;;-74
2022/11/16 20:26:52;;;;;;;;;;;;;;;8.52;93.27832;99514.98;;;;-74
2022/11/16 20:31:53;;;;;;;;;;;;;;;8.59;92.88574;99499.61;;;;-75
2022/11/16 20:36:53;;;;;;;;;;;;;;;8.56;93.08887;99486.78;;;;-73
2022/11/16 20:37:32;;;;;;;5.5;1.5;;;;;;;;;;;;;-74
2022/11/16 20:41:51;;;;;;;;;;;;;;;8.59;93.28125;99478.19;;;;-74
2022/11/16 20:46:51;;;;;;;;;;;;;;;8.67;92.77148;99478.72;;;;-74
2022/11/16 20:51:50;;;;;;;;;;;;;;;8.71;92.85645;99468.31;;;;-74
2022/11/16 20:56:51;;;;;;;;;;;;;;;8.74;92.78711;99462.64;;;;-74
2022/11/16 21:01:55;;;;;;;;;;;;;;;8.76;92.88965;99458.1;;;;-74
2022/11/16 21:06:50;;;;;;;;;;;;;;;8.8;92.49121;99446.44;;;;-74
2022/11/16 21:07:33;;;;;;;5.3;1.6;;;;;;;;;;;;;-75
2022/11/16 21:16:50;;;;;;;;;;;;;;;8.81;92.57031;99422.54;;;;-73
2022/11/16 21:21:50;;;;;;;;;;;;;;;8.8;92.51563;99412.64;;;;-75
2022/11/16 21:26:51;;;;;;;;;;;;;;;8.81;92.61621;99395.64;;;;-75
2022/11/16 21:31:51;;;;;;;;;;;;;;;8.8;92.5918;99382.2;;;;-75
2022/11/16 21:36:51;;;;;;;;;;;;;;;8.82;92.62891;99373.55;;;;-75
2022/11/16 21:37:33;;;;;;;5.8;1.8;;;;;;;;;;;;;-75
2022/11/16 21:41:50;;;;;;;;;;;;;;;8.83;92.49707;99359.98;;;;-74
2022/11/16 21:46:52;;;;;;;;;;;;;;;8.82;92.53027;99347.55;;;;-74
2022/11/16 21:51:52;;;;;;;;;;;;;;;8.83;92.56738;99342.69;;;;-74
2022/11/16 21:56:50;;;;;;;;;;;;;;;8.84;92.6875;99337.38;;;;-74
2022/11/16 22:02:02;;;;;;;;;;;;;;;8.84;92.62207;99321.58;;;;-74
2022/11/16 22:07:37;;;;;;;5.1;1.9;;;;;;;;;;;;;-75
2022/11/16 22:11:50;;;;;;;;;;;;;;;8.86;92.61523;99290.02;;;;-74
2022/11/16 22:16:50;;;;;;;;;;;;;;;8.87;92.66016;99279.64;;;;-74
2022/11/16 22:21:50;;;;;;;;;;;;;;;8.88;92.62988;99260.51;;;;-75
2022/11/16 22:26:50;;;;;;;;;;;;;;;8.88;92.68457;99250.8;;;;-74
2022/11/16 22:31:51;;;;;;;;;;;;;;;8.9;92.82031;99234.02;;;;-76
2022/11/16 22:36:51;;;;;;;;;;;;;;;8.9;92.69043;99217.84;;;;-75
2022/11/16 22:37:34;;;;;;;6;2.1;;;;;;;;;;;;;-76
2022/11/16 22:41:50;;;;;;;;;;;;;;;8.91;92.8457;99197.75;;;;-75
2022/11/16 22:46:51;;;;;;;;;;;;;;;8.93;92.79492;99180.11;;;;-76
2022/11/16 22:51:50;;;;;;;;;;;;;;;8.95;92.77734;99169.02;;;;-75
2022/11/16 22:56:51;;;;;;;;;;;;;;;8.97;92.84473;99159.67;;;;-74
2022/11/16 23:01:50;;;;;;;;;;;;;;;8.97;92.86816;99139.03;;;;-75
2022/11/16 23:06:51;;;;;;;;;;;;;;;9;92.73145;99131.33;;;;-75
2022/11/16 23:07:35;;;;;;;5.2;2;;;;;;;;;;;;;-75
2022/11/16 23:16:50;;;;;;;;;;;;;;;9.02;92.75781;99107.16;;;;-75
2022/11/16 23:31:50;;;;;;;;;;;;;;;9.05;93.12793;99070.39;;;;-76
2022/11/16 23:36:51;;;;;;;;;;;;;;;9.06;93.38184;99060.23;;;;-75
2022/11/16 23:37:36;;;;;;;5;1.8;;;;;;;;;;;;;-76
2022/11/16 23:46:51;;;;;;;;;;;;;;;9.04;93.95996;99012.47;;;;-75
2022/11/16 23:51:50;;;;;;;;;;;;;;;9.02;94.25293;99005.02;;;;-74
2022/11/16 23:56:50;;;;;;;;;;;;;;;9.01;94.66602;98978.91;;;;-75
